Terminal Aerodrome Forecast
Issued by NWS Portland, ME

Home | Current Version | Previous Version | Text Only | Print | Product List | Glossary On
Versions: 1 2 3 4 5 6 7 8 9 10 11 12 13 14 15 16 17 18 19 20
000
FTUS41 KGYX 011120
TAFPWM
TAF
KPWM 011120Z 0112/0212 02005KT P6SM -SHRA SCT040 OVC080
     FM011500 03007KT P6SM -SHRA BKN025 OVC040
     FM020300 02007KT P6SM BKN015=

USA.gov is the U.S. government's official web portal to all federal, state and local government web resources and services.